sensor_id;sensor_type;location;lat;lon;timestamp;pressure;altitude;pressure_sealevel;temperature;humidity
8286;BME280;4181;43.416;24.598;2022-09-02T00:02:14;98913.44;;;22.95;100.00
8286;BME280;4181;43.416;24.598;2022-09-02T00:04:43;98897.16;;;22.78;100.00
8286;BME280;4181;43.416;24.598;2022-09-02T00:07:09;98895.34;;;22.86;100.00
8286;BME280;4181;43.416;24.598;2022-09-02T00:09:34;98888.81;;;22.78;100.00
8286;BME280;4181;43.416;24.598;2022-09-02T00:12:03;98866.56;;;22.78;100.00
8286;BME280;4181;43.416;24.598;2022-09-02T00:14:31;98861.06;;;22.82;100.00
8286;BME280;4181;43.416;24.598;2022-09-02T00:16:57;98848.44;;;22.84;100.00
8286;BME280;4181;43.416;24.598;2022-09-02T00:19:25;98862.13;;;22.93;100.00
8286;BME280;4181;43.416;24.598;2022-09-02T00:21:53;98854.59;;;22.93;100.00
8286;BME280;4181;43.416;24.598;2022-09-02T00:24:19;98864.38;;;22.87;100.00
8286;BME280;4181;43.416;24.598;2022-09-02T00:26:45;98858.50;;;22.73;100.00
8286;BME280;4181;43.416;24.598;2022-09-02T00:29:12;98849.19;;;22.66;100.00
8286;BME280;4181;43.416;24.598;2022-09-02T00:31:39;98839.59;;;22.63;100.00
8286;BME280;4181;43.416;24.598;2022-09-02T00:34:05;98828.50;;;22.63;100.00
8286;BME280;4181;43.416;24.598;2022-09-02T00:36:32;98800.88;;;22.54;100.00
8286;BME280;4181;43.416;24.598;2022-09-02T00:38:57;98806.47;;;22.74;100.00
8286;BME280;4181;43.416;24.598;2022-09-02T00:41:25;98799.03;;;22.78;100.00
8286;BME280;4181;43.416;24.598;2022-09-02T00:43:55;98792.06;;;22.87;100.00
8286;BME280;4181;43.416;24.598;2022-09-02T00:46:24;98798.84;;;22.71;100.00
8286;BME280;4181;43.416;24.598;2022-09-02T00:49:07;98787.81;;;22.74;100.00
8286;BME280;4181;43.416;24.598;2022-09-02T00:51:50;98791.03;;;22.76;100.00
8286;BME280;4181;43.416;24.598;2022-09-02T00:54:18;98772.59;;;22.68;100.00
8286;BME280;4181;43.416;24.598;2022-09-02T00:56:46;98781.50;;;22.58;100.00
8286;BME280;4181;43.416;24.598;2022-09-02T00:59:53;98764.00;;;22.42;100.00
8286;BME280;4181;43.416;24.598;2022-09-02T01:02:09;98760.94;;;22.47;100.00
8286;BME280;4181;43.416;24.598;2022-09-02T01:04:34;98741.31;;;22.55;100.00
8286;BME280;4181;43.416;24.598;2022-09-02T01:07:00;98731.22;;;22.67;100.00
8286;BME280;4181;43.416;24.598;2022-09-02T01:09:27;98724.09;;;22.50;100.00
8286;BME280;4181;43.416;24.598;2022-09-02T01:11:53;98723.41;;;22.53;100.00
8286;BME280;4181;43.416;24.598;2022-09-02T01:14:19;98725.28;;;22.49;100.00
8286;BME280;4181;43.416;24.598;2022-09-02T01:16:54;98625.50;;;22.44;100.00
8286;BME280;4181;43.416;24.598;2022-09-02T01:19:33;98583.81;;;22.44;100.00
8286;BME280;4181;43.416;24.598;2022-09-02T01:21:59;98557.28;;;22.27;100.00
8286;BME280;4181;43.416;24.598;2022-09-02T01:24:29;98564.66;;;22.20;100.00
8286;BME280;4181;43.416;24.598;2022-09-02T01:26:57;98543.09;;;22.32;100.00
8286;BME280;4181;43.416;24.598;2022-09-02T01:29:24;98606.91;;;22.29;100.00
8286;BME280;4181;43.416;24.598;2022-09-02T01:31:50;98688.31;;;22.29;100.00
8286;BME280;4181;43.416;24.598;2022-09-02T01:34:16;98747.03;;;22.28;100.00
8286;BME280;4181;43.416;24.598;2022-09-02T01:36:43;98878.69;;;22.08;100.00
8286;BME280;4181;43.416;24.598;2022-09-02T01:39:11;98903.50;;;22.01;100.00
8286;BME280;4181;43.416;24.598;2022-09-02T01:41:37;98989.84;;;21.96;100.00
8286;BME280;4181;43.416;24.598;2022-09-02T01:44:04;99055.09;;;22.02;100.00
8286;BME280;4181;43.416;24.598;2022-09-02T01:46:30;99083.41;;;21.80;100.00
8286;BME280;4181;43.416;24.598;2022-09-02T01:48:56;99102.16;;;21.83;100.00
8286;BME280;4181;43.416;24.598;2022-09-02T01:51:21;99128.50;;;21.89;100.00
8286;BME280;4181;43.416;24.598;2022-09-02T01:53:47;99153.97;;;21.79;100.00
8286;BME280;4181;43.416;24.598;2022-09-02T01:56:13;99207.31;;;21.96;100.00
8286;BME280;4181;43.416;24.598;2022-09-02T01:58:39;99204.44;;;21.93;100.00
8286;BME280;4181;43.416;24.598;2022-09-02T02:01:05;99221.53;;;21.95;100.00
8286;BME280;4181;43.416;24.598;2022-09-02T02:03:30;99223.28;;;21.99;100.00
8286;BME280;4181;43.416;24.598;2022-09-02T02:05:56;99239.94;;;22.11;100.00
8286;BME280;4181;43.416;24.598;2022-09-02T02:08:22;99253.69;;;22.20;100.00
8286;BME280;4181;43.416;24.598;2022-09-02T02:10:50;99250.81;;;22.16;100.00
8286;BME280;4181;43.416;24.598;2022-09-02T02:13:16;99261.13;;;22.04;100.00
8286;BME280;4181;43.416;24.598;2022-09-02T02:15:42;99278.13;;;22.02;100.00
8286;BME280;4181;43.416;24.598;2022-09-02T02:18:08;99279.78;;;21.91;100.00
8286;BME280;4181;43.416;24.598;2022-09-02T02:20:36;99322.94;;;22.01;100.00
8286;BME280;4181;43.416;24.598;2022-09-02T02:23:03;99355.09;;;22.02;100.00
8286;BME280;4181;43.416;24.598;2022-09-02T02:25:30;99380.00;;;22.10;100.00
8286;BME280;4181;43.416;24.598;2022-09-02T02:27:55;99416.66;;;21.92;100.00
8286;BME280;4181;43.416;24.598;2022-09-02T02:30:21;99440.44;;;22.01;100.00
8286;BME280;4181;43.416;24.598;2022-09-02T02:32:47;99451.63;;;22.05;100.00
8286;BME280;4181;43.416;24.598;2022-09-02T02:35:14;99438.44;;;22.02;100.00
8286;BME280;4181;43.416;24.598;2022-09-02T02:37:40;99435.44;;;22.07;100.00
8286;BME280;4181;43.416;24.598;2022-09-02T02:40:08;99425.72;;;22.01;100.00
8286;BME280;4181;43.416;24.598;2022-09-02T02:42:34;99388.31;;;21.98;100.00
8286;BME280;4181;43.416;24.598;2022-09-02T02:45:00;99048.44;;;21.91;100.00
8286;BME280;4181;43.416;24.598;2022-09-02T02:47:26;99029.44;;;21.93;100.00
8286;BME280;4181;43.416;24.598;2022-09-02T02:49:52;99131.63;;;21.87;100.00
8286;BME280;4181;43.416;24.598;2022-09-02T02:52:17;99138.13;;;21.91;100.00
8286;BME280;4181;43.416;24.598;2022-09-02T02:54:44;99133.59;;;21.75;100.00
8286;BME280;4181;43.416;24.598;2022-09-02T02:57:10;99124.31;;;21.95;100.00
8286;BME280;4181;43.416;24.598;2022-09-02T02:59:37;99130.22;;;21.93;100.00
8286;BME280;4181;43.416;24.598;2022-09-02T03:02:04;99131.97;;;21.98;100.00
8286;BME280;4181;43.416;24.598;2022-09-02T03:04:30;99161.81;;;22.01;100.00
8286;BME280;4181;43.416;24.598;2022-09-02T03:06:55;99159.16;;;21.92;100.00
8286;BME280;4181;43.416;24.598;2022-09-02T03:09:21;99299.44;;;22.10;100.00
8286;BME280;4181;43.416;24.598;2022-09-02T03:11:47;99418.78;;;22.07;100.00
8286;BME280;4181;43.416;24.598;2022-09-02T03:14:14;99444.09;;;21.93;100.00
8286;BME280;4181;43.416;24.598;2022-09-02T03:16:42;99445.13;;;21.89;100.00
8286;BME280;4181;43.416;24.598;2022-09-02T03:19:08;99484.97;;;21.93;100.00
8286;BME280;4181;43.416;24.598;2022-09-02T03:21:38;99459.13;;;21.92;100.00
8286;BME280;4181;43.416;24.598;2022-09-02T03:24:04;99300.00;;;21.92;100.00
8286;BME280;4181;43.416;24.598;2022-09-02T03:26:32;98938.06;;;21.88;100.00
8286;BME280;4181;43.416;24.598;2022-09-02T03:28:58;98954.91;;;21.95;100.00
8286;BME280;4181;43.416;24.598;2022-09-02T03:31:25;98956.44;;;21.92;100.00
8286;BME280;4181;43.416;24.598;2022-09-02T03:33:51;99035.50;;;21.83;100.00
8286;BME280;4181;43.416;24.598;2022-09-02T03:36:27;99072.06;;;21.85;100.00
8286;BME280;4181;43.416;24.598;2022-09-02T03:38:54;99052.63;;;21.73;100.00
8286;BME280;4181;43.416;24.598;2022-09-02T03:41:20;98980.00;;;21.59;100.00
8286;BME280;4181;43.416;24.598;2022-09-02T03:43:46;98948.81;;;21.50;100.00
8286;BME280;4181;43.416;24.598;2022-09-02T03:46:12;98938.50;;;21.50;100.00
8286;BME280;4181;43.416;24.598;2022-09-02T03:48:38;98912.66;;;21.34;100.00
8286;BME280;4181;43.416;24.598;2022-09-02T03:51:05;98880.34;;;21.26;100.00
8286;BME280;4181;43.416;24.598;2022-09-02T03:53:32;98819.44;;;21.17;100.00
8286;BME280;4181;43.416;24.598;2022-09-02T03:56:04;98786.53;;;21.31;100.00
8286;BME280;4181;43.416;24.598;2022-09-02T03:58:30;98736.59;;;21.31;100.00
8286;BME280;4181;43.416;24.598;2022-09-02T04:00:56;98712.09;;;21.33;100.00
8286;BME280;4181;43.416;24.598;2022-09-02T04:03:21;98683.72;;;21.40;100.00
8286;BME280;4181;43.416;24.598;2022-09-02T04:05:48;98646.75;;;21.52;100.00
8286;BME280;4181;43.416;24.598;2022-09-02T04:08:15;98750.06;;;21.61;100.00
8286;BME280;4181;43.416;24.598;2022-09-02T04:10:40;98753.00;;;21.80;100.00
8286;BME280;4181;43.416;24.598;2022-09-02T04:13:06;98732.72;;;21.95;100.00
8286;BME280;4181;43.416;24.598;2022-09-02T04:15:31;98724.66;;;22.05;100.00
8286;BME280;4181;43.416;24.598;2022-09-02T04:17:58;98739.06;;;22.11;100.00
8286;BME280;4181;43.416;24.598;2022-09-02T04:20:23;98720.34;;;22.08;100.00
8286;BME280;4181;43.416;24.598;2022-09-02T04:22:49;98712.44;;;22.10;100.00
8286;BME280;4181;43.416;24.598;2022-09-02T04:25:14;98696.69;;;22.14;100.00
8286;BME280;4181;43.416;24.598;2022-09-02T04:27:40;98694.34;;;22.16;100.00
8286;BME280;4181;43.416;24.598;2022-09-02T04:30:07;98689.59;;;22.16;100.00
8286;BME280;4181;43.416;24.598;2022-09-02T04:32:33;98672.94;;;22.16;100.00
8286;BME280;4181;43.416;24.598;2022-09-02T04:34:59;98669.94;;;22.25;100.00
8286;BME280;4181;43.416;24.598;2022-09-02T04:37:25;98646.72;;;22.33;100.00
8286;BME280;4181;43.416;24.598;2022-09-02T04:39:51;98659.44;;;22.34;100.00
8286;BME280;4181;43.416;24.598;2022-09-02T04:42:17;98654.31;;;22.36;100.00
8286;BME280;4181;43.416;24.598;2022-09-02T04:44:43;98646.69;;;22.52;100.00
8286;BME280;4181;43.416;24.598;2022-09-02T04:47:10;98676.44;;;22.67;100.00
8286;BME280;4181;43.416;24.598;2022-09-02T04:49:36;98762.50;;;22.79;100.00
8286;BME280;4181;43.416;24.598;2022-09-02T04:52:02;98812.50;;;22.60;100.00
8286;BME280;4181;43.416;24.598;2022-09-02T04:54:27;98840.75;;;22.62;100.00
8286;BME280;4181;43.416;24.598;2022-09-02T04:56:53;98859.22;;;22.70;100.00
8286;BME280;4181;43.416;24.598;2022-09-02T04:59:18;98873.75;;;22.79;100.00
8286;BME280;4181;43.416;24.598;2022-09-02T05:01:45;98878.41;;;22.75;100.00
8286;BME280;4181;43.416;24.598;2022-09-02T05:04:10;98897.09;;;22.59;100.00
8286;BME280;4181;43.416;24.598;2022-09-02T05:06:36;98901.09;;;22.46;100.00
8286;BME280;4181;43.416;24.598;2022-09-02T05:09:04;98934.91;;;22.48;100.00
8286;BME280;4181;43.416;24.598;2022-09-02T05:11:30;98932.50;;;22.46;100.00
8286;BME280;4181;43.416;24.598;2022-09-02T05:13:58;98940.38;;;22.44;100.00
8286;BME280;4181;43.416;24.598;2022-09-02T05:16:28;98923.81;;;22.48;100.00
8286;BME280;4181;43.416;24.598;2022-09-02T05:18:58;98899.59;;;22.64;100.00
8286;BME280;4181;43.416;24.598;2022-09-02T05:21:24;98899.59;;;22.64;100.00
8286;BME280;4181;43.416;24.598;2022-09-02T05:23:50;98888.03;;;22.62;100.00
8286;BME280;4181;43.416;24.598;2022-09-02T05:26:16;98885.16;;;22.58;100.00
8286;BME280;4181;43.416;24.598;2022-09-02T05:28:42;98880.59;;;22.66;100.00
8286;BME280;4181;43.416;24.598;2022-09-02T05:31:10;98888.75;;;22.59;100.00
8286;BME280;4181;43.416;24.598;2022-09-02T05:33:37;98818.44;;;22.43;100.00
8286;BME280;4181;43.416;24.598;2022-09-02T05:36:06;98811.25;;;22.42;100.00
8286;BME280;4181;43.416;24.598;2022-09-02T05:38:33;98812.72;;;22.36;100.00
8286;BME280;4181;43.416;24.598;2022-09-02T05:41:07;98817.72;;;22.30;100.00
8286;BME280;4181;43.416;24.598;2022-09-02T05:43:39;98798.56;;;22.25;100.00
8286;BME280;4181;43.416;24.598;2022-09-02T05:46:07;98783.50;;;22.26;100.00
8286;BME280;4181;43.416;24.598;2022-09-02T05:48:35;98751.31;;;22.25;100.00
8286;BME280;4181;43.416;24.598;2022-09-02T05:51:19;98764.56;;;22.32;100.00
8286;BME280;4181;43.416;24.598;2022-09-02T05:53:45;98771.19;;;22.43;100.00
8286;BME280;4181;43.416;24.598;2022-09-02T05:56:10;98839.78;;;22.39;100.00
8286;BME280;4181;43.416;24.598;2022-09-02T05:58:36;98860.22;;;22.31;100.00
8286;BME280;4181;43.416;24.598;2022-09-02T06:01:12;98838.59;;;22.40;100.00
8286;BME280;4181;43.416;24.598;2022-09-02T06:03:39;98860.22;;;22.46;100.00
8286;BME280;4181;43.416;24.598;2022-09-02T06:06:04;98864.69;;;22.51;100.00
8286;BME280;4181;43.416;24.598;2022-09-02T06:08:30;98872.06;;;22.59;100.00
8286;BME280;4181;43.416;24.598;2022-09-02T06:10:57;98905.31;;;22.40;100.00
8286;BME280;4181;43.416;24.598;2022-09-02T06:13:25;98936.59;;;22.21;100.00
8286;BME280;4181;43.416;24.598;2022-09-02T06:15:50;98965.44;;;22.17;100.00
8286;BME280;4181;43.416;24.598;2022-09-02T06:18:16;98945.16;;;22.01;100.00
8286;BME280;4181;43.416;24.598;2022-09-02T06:20:44;98963.06;;;22.03;100.00
8286;BME280;4181;43.416;24.598;2022-09-02T06:23:11;98941.06;;;22.10;100.00
8286;BME280;4181;43.416;24.598;2022-09-02T06:25:38;99158.44;;;22.07;100.00
8286;BME280;4181;43.416;24.598;2022-09-02T06:28:05;99158.34;;;22.04;100.00
8286;BME280;4181;43.416;24.598;2022-09-02T06:30:31;99155.22;;;22.05;100.00
8286;BME280;4181;43.416;24.598;2022-09-02T06:32:57;99076.56;;;22.17;100.00
8286;BME280;4181;43.416;24.598;2022-09-02T06:35:22;99086.66;;;22.21;100.00
8286;BME280;4181;43.416;24.598;2022-09-02T06:37:48;99116.19;;;22.14;100.00
8286;BME280;4181;43.416;24.598;2022-09-02T06:40:14;99118.59;;;22.15;100.00
8286;BME280;4181;43.416;24.598;2022-09-02T06:42:40;99121.06;;;22.05;100.00
8286;BME280;4181;43.416;24.598;2022-09-02T06:45:07;99149.06;;;22.12;100.00
8286;BME280;4181;43.416;24.598;2022-09-02T06:47:33;99163.19;;;22.07;100.00
8286;BME280;4181;43.416;24.598;2022-09-02T06:49:58;99192.13;;;22.18;100.00
8286;BME280;4181;43.416;24.598;2022-09-02T06:52:24;99194.91;;;22.18;100.00
8286;BME280;4181;43.416;24.598;2022-09-02T06:54:50;99221.06;;;22.17;100.00
8286;BME280;4181;43.416;24.598;2022-09-02T06:57:16;99239.47;;;22.09;100.00
8286;BME280;4181;43.416;24.598;2022-09-02T06:59:42;99289.13;;;22.11;100.00
8286;BME280;4181;43.416;24.598;2022-09-02T07:02:07;99324.31;;;22.07;100.00
8286;BME280;4181;43.416;24.598;2022-09-02T07:04:33;99359.63;;;21.94;100.00
8286;BME280;4181;43.416;24.598;2022-09-02T07:07:17;99396.03;;;21.81;100.00
8286;BME280;4181;43.416;24.598;2022-09-02T07:09:43;99368.88;;;21.86;100.00
8286;BME280;4181;43.416;24.598;2022-09-02T07:12:08;99361.31;;;21.87;100.00
8286;BME280;4181;43.416;24.598;2022-09-02T07:14:39;99354.97;;;21.98;100.00
8286;BME280;4181;43.416;24.598;2022-09-02T07:17:07;99374.22;;;21.91;100.00
8286;BME280;4181;43.416;24.598;2022-09-02T07:19:34;99435.66;;;22.02;100.00
8286;BME280;4181;43.416;24.598;2022-09-02T07:22:02;99563.50;;;22.14;100.00
8286;BME280;4181;43.416;24.598;2022-09-02T07:24:28;99642.81;;;21.91;100.00
8286;BME280;4181;43.416;24.598;2022-09-02T07:26:53;99689.06;;;21.87;100.00
8286;BME280;4181;43.416;24.598;2022-09-02T07:29:19;99707.56;;;21.83;100.00
8286;BME280;4181;43.416;24.598;2022-09-02T07:31:46;99780.50;;;22.00;100.00
8286;BME280;4181;43.416;24.598;2022-09-02T07:34:13;99852.22;;;22.07;100.00
8286;BME280;4181;43.416;24.598;2022-09-02T07:36:39;99917.81;;;21.91;100.00
8286;BME280;4181;43.416;24.598;2022-09-02T07:39:07;100030.56;;;21.75;100.00
8286;BME280;4181;43.416;24.598;2022-09-02T07:41:33;100064.72;;;21.84;100.00
8286;BME280;4181;43.416;24.598;2022-09-02T07:44:02;100108.66;;;21.90;100.00
8286;BME280;4181;43.416;24.598;2022-09-02T07:46:28;100170.28;;;21.84;100.00
8286;BME280;4181;43.416;24.598;2022-09-02T07:48:57;99748.25;;;21.79;100.00
8286;BME280;4181;43.416;24.598;2022-09-02T07:51:23;99771.94;;;21.85;100.00
8286;BME280;4181;43.416;24.598;2022-09-02T07:53:49;99773.22;;;21.87;100.00
8286;BME280;4181;43.416;24.598;2022-09-02T07:56:15;99835.84;;;21.68;100.00
8286;BME280;4181;43.416;24.598;2022-09-02T07:58:43;99850.50;;;21.85;100.00
8286;BME280;4181;43.416;24.598;2022-09-02T08:01:10;99878.25;;;21.94;100.00
8286;BME280;4181;43.416;24.598;2022-09-02T08:03:37;99902.06;;;22.03;100.00
8286;BME280;4181;43.416;24.598;2022-09-02T08:06:04;99905.22;;;21.93;100.00
8286;BME280;4181;43.416;24.598;2022-09-02T08:08:30;99935.78;;;21.93;100.00
8286;BME280;4181;43.416;24.598;2022-09-02T08:10:56;99976.66;;;21.84;100.00
8286;BME280;4181;43.416;24.598;2022-09-02T08:13:22;100005.56;;;21.83;100.00
8286;BME280;4181;43.416;24.598;2022-09-02T08:15:48;100049.38;;;21.78;100.00
8286;BME280;4181;43.416;24.598;2022-09-02T08:18:14;100080.72;;;21.70;100.00
8286;BME280;4181;43.416;24.598;2022-09-02T08:20:39;100085.59;;;21.73;100.00
8286;BME280;4181;43.416;24.598;2022-09-02T08:23:06;100086.09;;;21.75;100.00
8286;BME280;4181;43.416;24.598;2022-09-02T08:25:33;100096.38;;;21.66;100.00
8286;BME280;4181;43.416;24.598;2022-09-02T08:27:58;100097.22;;;21.75;100.00
8286;BME280;4181;43.416;24.598;2022-09-02T08:30:25;100117.94;;;21.69;100.00
8286;BME280;4181;43.416;24.598;2022-09-02T08:32:50;100143.91;;;21.64;100.00
8286;BME280;4181;43.416;24.598;2022-09-02T08:35:16;100214.47;;;21.63;100.00
8286;BME280;4181;43.416;24.598;2022-09-02T08:37:41;100258.25;;;21.58;100.00
8286;BME280;4181;43.416;24.598;2022-09-02T08:40:12;100271.13;;;21.54;100.00
8286;BME280;4181;43.416;24.598;2022-09-02T08:42:46;100308.72;;;21.60;100.00
8286;BME280;4181;43.416;24.598;2022-09-02T08:45:35;100283.69;;;21.51;100.00
8286;BME280;4181;43.416;24.598;2022-09-02T08:48:21;100289.44;;;21.55;100.00
8286;BME280;4181;43.416;24.598;2022-09-02T08:50:51;100309.00;;;21.50;100.00
8286;BME280;4181;43.416;24.598;2022-09-02T08:53:57;100334.13;;;21.45;100.00
8286;BME280;4181;43.416;24.598;2022-09-02T08:56:24;100357.13;;;21.45;100.00
8286;BME280;4181;43.416;24.598;2022-09-02T08:58:52;100369.44;;;21.53;100.00
8286;BME280;4181;43.416;24.598;2022-09-02T09:01:49;100395.16;;;21.36;100.00
8286;BME280;4181;43.416;24.598;2022-09-02T09:18:10;100447.44;;;21.43;100.00
8286;BME280;4181;43.416;24.598;2022-09-02T09:20:41;100442.28;;;21.50;100.00
8286;BME280;4181;43.416;24.598;2022-09-02T09:25:57;100427.00;;;21.38;100.00
8286;BME280;4181;43.416;24.598;2022-09-02T09:28:28;100374.88;;;21.35;100.00
8286;BME280;4181;43.416;24.598;2022-09-02T09:30:53;100360.75;;;21.46;100.00
8286;BME280;4181;43.416;24.598;2022-09-02T09:33:20;100348.34;;;21.52;100.00
8286;BME280;4181;43.416;24.598;2022-09-02T09:38:13;100348.03;;;21.53;100.00
8286;BME280;4181;43.416;24.598;2022-09-02T09:40:38;100358.16;;;21.49;100.00
8286;BME280;4181;43.416;24.598;2022-09-02T09:45:38;100329.69;;;21.44;100.00
8286;BME280;4181;43.416;24.598;2022-09-02T09:53:33;100314.28;;;21.29;100.00
8286;BME280;4181;43.416;24.598;2022-09-02T09:58:45;100353.13;;;21.29;100.00
8286;BME280;4181;43.416;24.598;2022-09-02T10:03:40;100367.59;;;21.17;100.00
8286;BME280;4181;43.416;24.598;2022-09-02T10:06:39;100388.00;;;21.21;100.00
8286;BME280;4181;43.416;24.598;2022-09-02T10:09:28;100390.53;;;21.31;100.00
8286;BME280;4181;43.416;24.598;2022-09-02T10:12:10;100390.06;;;21.38;100.00
8286;BME280;4181;43.416;24.598;2022-09-02T10:14:47;100400.50;;;21.55;100.00
8286;BME280;4181;43.416;24.598;2022-09-02T10:17:26;100421.88;;;21.54;100.00
8286;BME280;4181;43.416;24.598;2022-09-02T10:39:10;100532.25;;;21.84;100.00
8286;BME280;4181;43.416;24.598;2022-09-02T10:41:40;100532.91;;;21.68;100.00
8286;BME280;4181;43.416;24.598;2022-09-02T10:44:46;100426.72;;;21.71;100.00
8286;BME280;4181;43.416;24.598;2022-09-02T10:47:28;100446.03;;;21.76;100.00
8286;BME280;4181;43.416;24.598;2022-09-02T10:55:53;100507.13;;;21.76;100.00
8286;BME280;4181;43.416;24.598;2022-09-02T11:01:53;100538.78;;;21.88;100.00
8286;BME280;4181;43.416;24.598;2022-09-02T11:04:30;100553.69;;;21.92;100.00
8286;BME280;4181;43.416;24.598;2022-09-02T11:07:03;100576.06;;;21.74;100.00
8286;BME280;4181;43.416;24.598;2022-09-02T11:09:40;100592.66;;;21.79;100.00
8286;BME280;4181;43.416;24.598;2022-09-02T11:12:12;100604.28;;;21.81;100.00
8286;BME280;4181;43.416;24.598;2022-09-02T11:14:50;100606.09;;;21.85;100.00
8286;BME280;4181;43.416;24.598;2022-09-02T11:17:35;100622.09;;;21.80;100.00
8286;BME280;4181;43.416;24.598;2022-09-02T11:22:54;100634.84;;;21.81;100.00
8286;BME280;4181;43.416;24.598;2022-09-02T11:25:28;100650.66;;;21.80;100.00
8286;BME280;4181;43.416;24.598;2022-09-02T11:30:50;100668.50;;;21.79;100.00
8286;BME280;4181;43.416;24.598;2022-09-02T11:33:27;100671.16;;;21.84;100.00
8286;BME280;4181;43.416;24.598;2022-09-02T11:35:57;100668.06;;;21.86;100.00
8286;BME280;4181;43.416;24.598;2022-09-02T11:38:33;100673.22;;;21.79;100.00
8286;BME280;4181;43.416;24.598;2022-09-02T11:43:47;100670.31;;;21.70;100.00
8286;BME280;4181;43.416;24.598;2022-09-02T11:52:23;100659.59;;;21.91;100.00
8286;BME280;4181;43.416;24.598;2022-09-02T11:57:57;100659.41;;;21.87;100.00
8286;BME280;4181;43.416;24.598;2022-09-02T12:00:30;100659.84;;;21.81;100.00
8286;BME280;4181;43.416;24.598;2022-09-02T12:03:10;100659.00;;;21.80;100.00
8286;BME280;4181;43.416;24.598;2022-09-02T12:08:12;100649.13;;;21.88;100.00
8286;BME280;4181;43.416;24.598;2022-09-02T12:18:44;100667.19;;;21.99;100.00
8286;BME280;4181;43.416;24.598;2022-09-02T12:21:15;100686.31;;;22.00;100.00
8286;BME280;4181;43.416;24.598;2022-09-02T12:26:17;100695.81;;;21.99;100.00
8286;BME280;4181;43.416;24.598;2022-09-02T12:28:43;100693.59;;;22.10;100.00
8286;BME280;4181;43.416;24.598;2022-09-02T12:36:59;100688.69;;;22.29;100.00
8286;BME280;4181;43.416;24.598;2022-09-02T12:47:29;100741.44;;;22.56;100.00
8286;BME280;4181;43.416;24.598;2022-09-02T12:50:05;100734.31;;;22.50;100.00
8286;BME280;4181;43.416;24.598;2022-09-02T12:55:26;100743.34;;;22.69;100.00
8286;BME280;4181;43.416;24.598;2022-09-02T12:58:06;100744.50;;;22.77;100.00
8286;BME280;4181;43.416;24.598;2022-09-02T13:00:33;100750.91;;;22.77;100.00
8286;BME280;4181;43.416;24.598;2022-09-02T13:06:26;100763.53;;;23.05;100.00
8286;BME280;4181;43.416;24.598;2022-09-02T13:15:18;100781.16;;;23.53;100.00
8286;BME280;4181;43.416;24.598;2022-09-02T13:27:30;100819.78;;;23.77;100.00
8286;BME280;4181;43.416;24.598;2022-09-02T13:32:55;100850.53;;;23.63;100.00
8286;BME280;4181;43.416;24.598;2022-09-02T13:35:27;100845.97;;;23.67;100.00
8286;BME280;4181;43.416;24.598;2022-09-02T13:37:58;100844.19;;;23.80;100.00
8286;BME280;4181;43.416;24.598;2022-09-02T13:43:03;100850.09;;;24.09;100.00
8286;BME280;4181;43.416;24.598;2022-09-02T13:45:32;100856.84;;;24.17;100.00
8286;BME280;4181;43.416;24.598;2022-09-02T13:48:01;100863.91;;;24.23;100.00
8286;BME280;4181;43.416;24.598;2022-09-02T13:50:30;100864.91;;;24.35;100.00
8286;BME280;4181;43.416;24.598;2022-09-02T13:53:01;100865.25;;;24.34;100.00
8286;BME280;4181;43.416;24.598;2022-09-02T13:55:27;100876.06;;;24.27;100.00
8286;BME280;4181;43.416;24.598;2022-09-02T13:58:14;100881.75;;;24.05;100.00
8286;BME280;4181;43.416;24.598;2022-09-02T14:00:44;100875.88;;;23.84;100.00
8286;BME280;4181;43.416;24.598;2022-09-02T14:03:16;100877.63;;;23.71;100.00
8286;BME280;4181;43.416;24.598;2022-09-02T14:05:44;100869.00;;;23.82;100.00
8286;BME280;4181;43.416;24.598;2022-09-02T14:08:14;100868.78;;;23.69;100.00
8286;BME280;4181;43.416;24.598;2022-09-02T14:10:41;100870.78;;;23.77;100.00
8286;BME280;4181;43.416;24.598;2022-09-02T14:13:09;100871.59;;;23.47;100.00
8286;BME280;4181;43.416;24.598;2022-09-02T14:15:35;100873.06;;;23.45;100.00
8286;BME280;4181;43.416;24.598;2022-09-02T14:18:21;100865.19;;;23.47;100.00
8286;BME280;4181;43.416;24.598;2022-09-02T14:23:27;100866.78;;;23.17;100.00
8286;BME280;4181;43.416;24.598;2022-09-02T14:26:00;100860.56;;;23.20;100.00
8286;BME280;4181;43.416;24.598;2022-09-02T14:28:33;100861.22;;;23.17;100.00
8286;BME280;4181;43.416;24.598;2022-09-02T14:31:04;100852.16;;;23.12;100.00
8286;BME280;4181;43.416;24.598;2022-09-02T14:38:36;100845.09;;;23.28;100.00
8286;BME280;4181;43.416;24.598;2022-09-02T14:43:49;100843.19;;;23.37;100.00
8286;BME280;4181;43.416;24.598;2022-09-02T14:46:52;100847.81;;;23.41;100.00
8286;BME280;4181;43.416;24.598;2022-09-02T14:49:36;100846.00;;;23.23;100.00
8286;BME280;4181;43.416;24.598;2022-09-02T14:52:18;100848.31;;;23.21;100.00
8286;BME280;4181;43.416;24.598;2022-09-02T14:54:47;100842.22;;;23.19;100.00
8286;BME280;4181;43.416;24.598;2022-09-02T14:57:34;100845.72;;;23.03;100.00
8286;BME280;4181;43.416;24.598;2022-09-02T15:00:05;100845.03;;;22.97;100.00
8286;BME280;4181;43.416;24.598;2022-09-02T15:02:35;100855.50;;;23.00;100.00
8286;BME280;4181;43.416;24.598;2022-09-02T15:05:03;100848.31;;;22.99;100.00
8286;BME280;4181;43.416;24.598;2022-09-02T15:07:29;100855.91;;;23.07;100.00
8286;BME280;4181;43.416;24.598;2022-09-02T15:09:55;100852.00;;;23.08;100.00
8286;BME280;4181;43.416;24.598;2022-09-02T15:12:32;100844.63;;;22.90;100.00
8286;BME280;4181;43.416;24.598;2022-09-02T15:14:59;100848.31;;;22.99;100.00
8286;BME280;4181;43.416;24.598;2022-09-02T15:17:25;100848.63;;;22.98;100.00
8286;BME280;4181;43.416;24.598;2022-09-02T15:19:50;100862.75;;;23.01;100.00
8286;BME280;4181;43.416;24.598;2022-09-02T15:22:17;100865.22;;;23.03;100.00
8286;BME280;4181;43.416;24.598;2022-09-02T15:24:44;100864.19;;;22.99;100.00
8286;BME280;4181;43.416;24.598;2022-09-02T15:27:10;100866.53;;;23.05;100.00
8286;BME280;4181;43.416;24.598;2022-09-02T15:29:36;100860.38;;;23.17;100.00